首页
METAR-TAF:

METAR-TAF

机场 :

Del Rio, 得克萨斯州, 美国

纬度: 29-07-00N, 经度: 100-28-00W, 海拔: 294米

当前天气观测

该预报发布于1小时和2分钟前的22:55 UTC
风速14节,风向东转东南,有时为18节阵风
温度 38°C
湿度 35%
气压 1004 hPa
能見度: 16.1公里
天空无云

METAR: KDLF 202255Z AUTO 11014G18KT 10SM CLR 38/20 A2966 RMK AO2 SLP029 T03780196 $

时间: 18:57 (23:57 UTC)

预报

该预报发布于4小时和57分钟前的19:00 UTC
预报有效从20日的 19点(UTC)到 22日的 01点(UTC)
风速12节,风向南转南东,有时为20节阵风
能见度10公里或以上
少量云层高于3000英尺
少量云层高于25000英尺
成为
从 21日的 00点(UTC)到 21日的 01点(UTC)
风速12节,风向东南
能见度10公里或以上
少量云层高于25000英尺
成为
从 21日的 10点(UTC)到 21日的 11点(UTC)
风速10节,风向东转东南
能见度10公里或以上
多云层高于1300英尺
阴天层高于2000英尺
成为
从 21日的 15点(UTC)到 21日的 16点(UTC)
风速12节,风向东南
能见度10公里或以上
多云层高于2000英尺
多云层高于22000英尺
成为
从 21日的 16点(UTC)到 21日的 17点(UTC)
风速12节,风向南转南东,有时为20节阵风
能见度10公里或以上
少量云层高于2500英尺
多云层高于25000英尺

TAF: KDLF 201900Z 2019/2201 15012G20KT 9999 FEW030 FEW250 QNH2961INS BECMG 2100/2101 14012KT 9999 FEW250 QNH2962INS BECMG 2110/2111 12010KT 9999 BKN013 OVC020 QNH2968INS BECMG 2115/2116 13012KT 9999 BKN020 BKN220 QNH2974INS BECMG 2116/2117 15012G20KT 9999 FEW025 BKN250 QNH2963INS TX39/2022Z TN25/2111Z

超过4000个机场的气象观测和天气预报(METAR&TAF报告)。

可查询的气象台以黄色和红色小点在地图上表示。

将鼠标移到小点上方,可查看气象台名称。

然后点击查看天气观测和预报。

如需切换地图:点击带黑十字的绿色按钮放大地图;点击带横线的绿色按钮缩小地图;或者点击绿色箭头查看邻近地区的地图。


METAR-TAF: